Kuusiku, Estonia

7:41 PM EEST on July 28, 2014 (GMT +0300)
Saula (IHARJUMA18) Elev 180 ft | 59.22 °N, 25.00 °E | Change Station

Current weather conditions updated 1 minute ago

Partly Cloudy
Partly Cloudy
80.4 °F
Feels Like 82 °F
N
0.0
Wind Variable Wind from East
Gusts 0.0 mph

Today
High -- | Low -- °F
--% Chance of Precip.
Yesterday
High -- | Low -- °F
Precip. -- in
4:59 AM 9:54 PM
Waxing Crescent, 3% visible
Pressure 29.92 in
Visibility 6.2 miles
Clouds Few 3000 ft
Heat Index 82 °F
Dew Point 62 °F
Humidity 54%
Rainfall 0.00 in
Snow Depth Not available.
UV 1 out of 12
Pollen Not available.
Air Quality Not available.
Flu Activity Not available.
METAR EETN 281620Z 24006KT 210V270 9999 FEW030CB 29/15 Q1013 NOSIG

More Conditions Fewer Conditions

Pressure 29.92 in
Visibility 6.2 miles
Clouds Few 3000 ft
Heat Index 82 °F
Dew Point 62 °F
Humidity 54%
Rainfall 0.00 in
Snow Depth Not available.
UV 1 out of 12
Pollen Not available.
Air Quality Not available.
Flu Activity Not available.
METAR EETN 281620Z 24006KT 210V270 9999 FEW030CB 29/15 Q1013 NOSIG

More Conditions Fewer Conditions

10-Day Weather Forecast

Almanac

Astronomy

Jul. 28, 2014 Rise Set
Actual Time 4:59 AM EEST 9:54 PM EEST
Civil Twilight 3:59 AM EEST 10:53 PM EEST
Nautical Twilight 2:00 AM EEST 1:00 AM EEST
Astronomical Twilight Sun does not rise Sun does not rise
Moon 7:00 AM EEST 9:41 PM EEST
Length of Visible Light 18h 53m
Length of Day
16h 55m
Tomorrow will be 4m 22s shorter.
Waxing Crescent, 3% of the Moon is Illuminated
Today
Waxing Crescent
Aug 3
First Quarter
Aug 10
Full
Aug 17
Last Quarter
Aug 25
New

Today's Extremes

Country Highs Country Lows

Community

WunderPhotos

Upload Photos

1,738,407 photos uploaded!

Nearby

Snow Depth

Not available.

Earthquake Activity

City Distance Mag. Time & Date
No recent earthquake activity has been reported nearby.
Minimum magnitude displayed is 2.5.

Coastal Water Temperatures

Place Temperature
No Stations Reporting

Nearby Weather Stations

Station Location Temp. Heat Index Dew Point Humidity Wind Precip. Elev Updated Type
Saula, Harjumaa 80.4 °F 82 °F 62 °F 54% East  at  0.0 mph 0.00 in / hr 180 ft 7:40 PM EEST Normal
Kibuna 84.7 °F 85 °F 60 °F 44% North  at  0.0 mph 0.00 in / hr 95 ft 7:40 PM EEST Normal
Vasalemma 90.5 °F 94 °F 67 °F 46% NW  at  0.0 mph 0.00 in / hr 88 ft 7:41 PM EEST Rapid Fire

Show More Stations Show Fewer Stations